ADDS METAR Data INFO
IDs: Format: Raw Decoded Include TAF

Data at: 1942 UTC 17 Feb 2018

KTKI 171938Z 32009KT 10SM SCT021 13/09 A3012 RMK AO2 T01330089
KTKI 171853Z 28009KT 10SM BKN016 12/08 A3013 RMK AO2 SLP210 T01170083
KTKI 171824Z 23004KT 10SM BKN010 11/09 A3012 RMK AO2 T01060089
KTKI 171753Z VRB03KT 10SM BKN007 09/08 A3013 RMK AO2 SLP212 60036 T00890078 10089 20050 56003
KTKI 171653Z 13003KT 6SM BR OVC004 07/07 A3014 RMK AO2 SLP215 P0007 T00720072
KTKI 171637Z 04003KT 6SM BR OVC004 07/07 A3014 RMK AO2 P0006 T00670067
KTKI 171553Z 00000KT 4SM BR OVC006 07/07 A3014 RMK AO2 RAE52 SLP216 P0010 T00670067
KTKI 171453Z 17004KT 3SM -RA BR BKN005 BKN014 OVC031 06/06 A3011 RMK AO2 SLP207 P0010 60019 T00560056 53006
KTKI 171355Z 00000KT 2SM -RA BR BKN005 BKN014 OVC031 05/05 A3010 RMK AO2 P0001 T00500050
KTKI 171353Z 00000KT 2SM RA BR SCT005 BKN014 OVC031 05/05 A3010 RMK AO2 SLP204 P0008 T00500050
KTKI 171346Z 30004KT 2SM RA BR SCT005 BKN014 OVC028 05/05 A3011 RMK AO2 P0007 T00500050
KTKI 171333Z 31005KT 2SM +RA BR BKN022 BKN055 OVC090 05/04 A3009 RMK AO2 P0005 T00500044
KTKI 171258Z 17008KT 3SM RA BR FEW035 BKN045 OVC090 05/05 A3007 RMK AO2 LTG DSNT NE AND E P0001 T00500050
KTKI 171253Z 16009KT 2 1/2SM VCTS +RA BR SCT035 BKN043 OVC055 05/05 A3005 RMK AO2 LTG DSNT NE SLP189 P0001 T00500050
KTKI 171235Z 00000KT 9SM VCTS -RA OVC035 05/04 A3009 RMK AO2 LTG DSNT W AND NW P0001 T00500044
KTKI 171153Z AUTO 00000KT 10SM -RA OVC033 05/04 A3009 RMK AO2 LTG DSNT N RAE03B50 SLP201 P0000 60002 70003 T00500044 10067 20050 50004
KTKI 171100Z AUTO 32010KT 8SM -RA SCT009 OVC032 05/04 A3010 RMK AO2 P0000 T00500044
KTKI 171053Z AUTO 32012KT 8SM -RA BKN009 BKN030 OVC036 05/04 A3011 RMK AO2 SLP207 P0001 T00500044
KTKI 171029Z AUTO 32013G20KT 4SM -RA BR BKN009 OVC025 05/04 A3011 RMK AO2 P0001 T00500044
KTKI 170953Z AUTO 31012KT 4SM -RA BR FEW008 BKN017 OVC021 05/04 A3012 RMK AO2 SLP210 P0001 T00500044
KTKI 170937Z AUTO 30012KT 3SM -RA BR FEW006 OVC015 05/05 A3013 RMK AO2 PRESRR P0001 T00500050
KTKI 170932Z AUTO 31011KT 2 1/2SM -RA BR OVC015 05/05 A3012 RMK AO2 P0001 T00500050
KTKI 170853Z AUTO 31006KT 5SM -RA BR OVC018 06/04 A3008 RMK AO2 RAB29 SLP195 P0000 60000 T00560044 55012
KTKI 170753Z AUTO 29004KT 10SM OVC021 07/04 A3008 RMK AO2 SLP193 T00670039
KTKI 170653Z AUTO 00000KT 10SM OVC023 07/04 A3009 RMK AO2 RAE24 SLP200 P0000 T00670044
KTKI 170553Z AUTO 00000KT 10SM -RA OVC023 07/03 A3012 RMK AO2 RAE0458B21 SLP207 P0001 60001 T00670033 10083 20061 402060061 58024
KTKI 170453Z AUTO 03004KT 10SM -RA OVC024 07/02 A3015 RMK AO2 RAB44 SLP217 P0000 T00670022
KTKI 170353Z AUTO 04005KT 10SM OVC026 07/02 A3018 RMK AO2 RAB23E36 SLP227 P0000 T00720017
KTKI 170253Z 03006KT 10SM OVC026 07/01 A3019 RMK AO2 SLP231 T00720011 58014
KTKI 170153Z 01007KT 10SM OVC026 07/01 A3021 RMK AO2 SLP237 T00720006
KTKI 170053Z 02009KT 10SM OVC027 08/01 A3022 RMK AO2 SLP241 T00780006
KTKI 162353Z 03007KT 10SM OVC026 08/00 A3023 RMK AO2 SLP243 T00830000 10133 20083 58002
KTKI 162253Z 03010KT 10SM OVC026 08/00 A3024 RMK AO2 SLP245 T00830000
KTKI 162210Z 35013KT 10SM OVC029 09/00 A3024 RMK AO2 T00940000
KTKI 162153Z 36012KT 10SM OVC030 10/01 A3023 RMK AO2 SLP243 T01000006
KTKI 162053Z 01015KT 10SM BKN120 11/01 A3023 RMK AO2 SLP242 T01060011 55009
KTKI 161953Z 01013KT 10SM SCT120 12/02 A3023 RMK AO2 SLP240 T01220017
KTKI 161853Z 02014KT 10SM BKN120 11/01 A3025 RMK AO2 SLP248 T01110011
KTKI 161753Z 01018G26KT 10SM BKN110 13/02 A3026 RMK AO2 PK WND 36028/1724 SLP250 T01280017 10144 20117 51020
KTKI 161653Z 01022G28KT 10SM CLR 12/01 A3026 RMK AO2 PK WND 01028/1652 SLP248 T01220011
KTKI 161553Z 01023G28KT 10SM CLR 13/02 A3023 RMK AO2 PK WND 36029/1537 SLP240 T01330017
KTKI 161453Z 36020G24KT 10SM CLR 12/03 A3020 RMK AO2 PK WND 36030/1402 SLP230 T01170028 51047
KTKI 161353Z 36021G26KT 10SM CLR 12/03 A3017 RMK AO2 PK WND 36026/1352 SLP220 T01220033
KTKI 161253Z 35012KT 10SM CLR 13/06 A3012 RMK AO2 SLP202 T01280061
KTKI 161209Z 35013KT 10SM SCT021 14/07 A3008 RMK AO2 PRESRR T01390072
KTKI 161153Z AUTO 35015G23KT 10SM OVC021 14/08 A3006 RMK AO2 PK WND 33027/1129 WSHFT 1122 SLP180 T01440078 10206 20144 53032
KTKI 161142Z AUTO 35019G25KT 10SM BKN019 OVC024 16/09 A3005 RMK AO2 PK WND 33027/1129 WSHFT 1122 PRESRR T01560094
KTKI 161129Z AUTO 32020G27KT 10SM FEW016 BKN023 19/17 A3003 RMK AO2 PK WND 33027/1129 T01890167
KTKI 161053Z AUTO 24005KT 10SM CLR 18/17 A3000 RMK AO2 SLP159 T01780172
KTKI 160953Z AUTO 22008KT 10SM CLR 19/18 A2998 RMK AO2 SLP149 T01890183
KTKI 160853Z AUTO 22012KT 10SM CLR 20/18 A2996 RMK AO2 SLP145 T02000183 53006
KTKI 160753Z AUTO 20006KT 10SM CLR 21/18 A2997 RMK AO2 SLP146 T02060183